TKJ4243 LTCK-LTAC
Flight info
| Callsign | TKJ4243 |
|---|---|
| Flight time | N/A |
| Altitude | 36000 |
| Route | BAYIR UT368 EZS UL614 GEM UW705 BADOX UL605 BALAX UA17 YUCEL |
| Aircraft | B738/M-SDE2E3FGHIRWXY/LB1 |
Departure
| Time | 2026-05-07 19:13 |
|---|---|
| Airport | Muş Airport (LTCK) |
Arrival
| Time | N/A |
|---|---|
| Airport | Esenboğa International Airport (LTAC) |
| Time | Latitude | Longitude | Altitude | Speed | Heading |
|---|---|---|---|---|---|
| 2026-05-07 18:50 | 38.75944 | 41.64693 | 4227 ft | 0 kts | 26° |
| 2026-05-07 19:00 | 38.75941 | 41.64691 | 4228 ft | 2 kts | 26° |
| 2026-05-07 19:00 | 38.75924 | 41.64680 | 4229 ft | 3 kts | 22° |
| 2026-05-07 19:00 | 38.75905 | 41.64672 | 4229 ft | 3 kts | 11° |
| 2026-05-07 19:00 | 38.75886 | 41.64670 | 4229 ft | 3 kts | 341° |
| 2026-05-07 19:01 | 38.75875 | 41.64679 | 4227 ft | 3 kts | 297° |
| 2026-05-07 19:01 | 38.75875 | 41.64681 | 4226 ft | 3 kts | 296° |
| 2026-05-07 19:01 | 38.75874 | 41.64681 | 4226 ft | 0 kts | 296° |
| 2026-05-07 19:03 | 38.75875 | 41.64679 | 4226 ft | 1 kts | 296° |
| 2026-05-07 19:04 | 38.75879 | 41.64669 | 4226 ft | 2 kts | 295° |
| 2026-05-07 19:04 | 38.75884 | 41.64652 | 4227 ft | 2 kts | 286° |
| 2026-05-07 19:04 | 38.75872 | 41.64623 | 4224 ft | 7 kts | 218° |
| 2026-05-07 19:04 | 38.75815 | 41.64584 | 4224 ft | 11 kts | 207° |
| 2026-05-07 19:05 | 38.75733 | 41.64531 | 4221 ft | 16 kts | 206° |
| 2026-05-07 19:05 | 38.75625 | 41.64462 | 4219 ft | 18 kts | 207° |
| 2026-05-07 19:05 | 38.75516 | 41.64391 | 4218 ft | 17 kts | 214° |
| 2026-05-07 19:05 | 38.75438 | 41.64279 | 4216 ft | 17 kts | 218° |
| 2026-05-07 19:06 | 38.75338 | 41.64269 | 4221 ft | 16 kts | 131° |
| 2026-05-07 19:06 | 38.75241 | 41.64514 | 4218 ft | 15 kts | 116° |
| 2026-05-07 19:06 | 38.75196 | 41.64633 | 4220 ft | 15 kts | 116° |
| 2026-05-07 19:07 | 38.75152 | 41.64748 | 4218 ft | 14 kts | 116° |
| 2026-05-07 19:07 | 38.75108 | 41.64863 | 4220 ft | 15 kts | 117° |
| 2026-05-07 19:07 | 38.75061 | 41.64981 | 4225 ft | 16 kts | 116° |
| 2026-05-07 19:07 | 38.75005 | 41.65124 | 4223 ft | 20 kts | 116° |
| 2026-05-07 19:08 | 38.74937 | 41.65301 | 4224 ft | 24 kts | 115° |
| 2026-05-07 19:08 | 38.74859 | 41.65504 | 4224 ft | 26 kts | 116° |
| 2026-05-07 19:08 | 38.74782 | 41.65702 | 4221 ft | 24 kts | 116° |
| 2026-05-07 19:08 | 38.74710 | 41.65888 | 4224 ft | 23 kts | 116° |
| 2026-05-07 19:09 | 38.74642 | 41.66068 | 4231 ft | 22 kts | 116° |
| 2026-05-07 19:09 | 38.74574 | 41.66242 | 4230 ft | 22 kts | 117° |
| 2026-05-07 19:09 | 38.74506 | 41.66410 | 4226 ft | 21 kts | 116° |
| 2026-05-07 19:09 | 38.74445 | 41.66573 | 4226 ft | 20 kts | 116° |
| 2026-05-07 19:10 | 38.74384 | 41.66733 | 4223 ft | 20 kts | 116° |
| 2026-05-07 19:10 | 38.74325 | 41.66888 | 4223 ft | 19 kts | 116° |
| 2026-05-07 19:10 | 38.74266 | 41.67037 | 4225 ft | 18 kts | 117° |
| 2026-05-07 19:10 | 38.74210 | 41.67181 | 4223 ft | 18 kts | 117° |
| 2026-05-07 19:11 | 38.74157 | 41.67320 | 4227 ft | 17 kts | 116° |
| 2026-05-07 19:11 | 38.74104 | 41.67455 | 4224 ft | 17 kts | 116° |
| 2026-05-07 19:11 | 38.74054 | 41.67584 | 4226 ft | 16 kts | 116° |
| 2026-05-07 19:11 | 38.74007 | 41.67709 | 4223 ft | 15 kts | 115° |
| 2026-05-07 19:12 | 38.73984 | 41.67832 | 4224 ft | 15 kts | 71° |
| 2026-05-07 19:12 | 38.74062 | 41.67903 | 4223 ft | 14 kts | 355° |
| 2026-05-07 19:12 | 38.74126 | 41.67820 | 4227 ft | 13 kts | 296° |
| 2026-05-07 19:12 | 38.74180 | 41.67677 | 4229 ft | 38 kts | 296° |
| 2026-05-07 19:13 | 38.74405 | 41.67091 | 4220 ft | 107 kts | 296° |
| 2026-05-07 19:13 | 38.74820 | 41.66008 | 4229 ft | 162 kts | 294° |
| 2026-05-07 19:13 | 38.75353 | 41.64572 | 4500 ft | 185 kts | 291° |
| 2026-05-07 19:13 | 38.75829 | 41.63055 | 5310 ft | 183 kts | 293° |
| 2026-05-07 19:14 | 38.76390 | 41.61585 | 6129 ft | 188 kts | 296° |
| 2026-05-07 19:14 | 38.77016 | 41.59998 | 6366 ft | 210 kts | 296° |
| 2026-05-07 19:14 | 38.77690 | 41.58271 | 6522 ft | 229 kts | 296° |
| 2026-05-07 19:14 | 38.78425 | 41.56363 | 6728 ft | 247 kts | 296° |
| 2026-05-07 19:15 | 38.79213 | 41.54292 | 6949 ft | 268 kts | 296° |
| 2026-05-07 19:15 | 38.80035 | 41.52110 | 7553 ft | 274 kts | 295° |
| 2026-05-07 19:15 | 38.80862 | 41.49904 | 8288 ft | 275 kts | 295° |